createdAt,value
2022-10-05T00:01:15.434Z,1.40
2022-10-05T00:03:42.993Z,1.40
2022-10-05T00:06:10.658Z,1.20
2022-10-05T00:08:38.216Z,1.38
2022-10-05T00:11:07.344Z,1.25
2022-10-05T00:13:34.884Z,1.20
2022-10-05T00:16:09.219Z,1.20
2022-10-05T00:18:38.315Z,1.38
2022-10-05T00:21:13.617Z,1.30
2022-10-05T00:23:41.126Z,1.27
2022-10-05T00:26:12.904Z,1.40
2022-10-05T00:28:40.920Z,1.10
2022-10-05T00:31:11.670Z,1.30
2022-10-05T00:33:40.649Z,1.30
2022-10-05T00:36:08.397Z,1.08
2022-10-05T00:38:35.983Z,1.52
2022-10-05T00:41:06.372Z,1.10
2022-10-05T00:44:00.280Z,1.38
2022-10-05T00:46:30.276Z,1.23
2022-10-05T00:49:01.616Z,1.10
2022-10-05T00:51:29.778Z,1.20
2022-10-05T00:54:18.043Z,1.35
2022-10-05T00:57:01.128Z,1.48
2022-10-05T00:59:36.828Z,1.30
2022-10-05T01:02:07.861Z,1.02
2022-10-05T01:04:44.470Z,1.50
2022-10-05T01:07:15.992Z,1.17
2022-10-05T01:09:47.342Z,1.20
2022-10-05T01:12:17.508Z,1.30
2022-10-05T01:14:49.804Z,1.40
2022-10-05T01:17:20.062Z,1.20
2022-10-05T01:20:08.145Z,1.30
2022-10-05T01:22:42.420Z,1.27
2022-10-05T01:25:18.285Z,1.40
2022-10-05T01:27:53.377Z,1.25
2022-10-05T01:30:21.405Z,1.30
2022-10-05T01:32:51.789Z,1.30
2022-10-05T01:35:27.984Z,1.33
2022-10-05T01:38:00.850Z,1.33
2022-10-05T01:40:32.332Z,1.48
2022-10-05T01:43:05.700Z,1.30
2022-10-05T01:45:36.244Z,1.30
2022-10-05T01:48:08.313Z,1.27
2022-10-05T01:50:41.352Z,1.10
2022-10-05T01:53:12.381Z,1.20
2022-10-05T01:55:42.304Z,1.30
2022-10-05T01:58:17.176Z,1.30
2022-10-05T02:00:48.146Z,1.10
2022-10-05T02:03:18.451Z,1.33
2022-10-05T02:05:49.165Z,1.30
2022-10-05T02:08:17.713Z,1.10
2022-10-05T02:10:47.308Z,1.10
2022-10-05T02:13:17.629Z,1.20
2022-10-05T02:15:46.046Z,1.40
2022-10-05T02:18:15.278Z,1.30
2022-10-05T02:20:42.836Z,1.20
2022-10-05T02:23:12.418Z,1.40
2022-10-05T02:25:40.848Z,1.35
2022-10-05T02:28:10.255Z,1.20
2022-10-05T02:30:42.432Z,1.25
2022-10-05T02:33:11.681Z,1.35
2022-10-05T02:35:39.323Z,1.10
2022-10-05T02:38:09.494Z,1.20
2022-10-05T02:40:42.305Z,0.90
2022-10-05T02:43:16.177Z,1.23
2022-10-05T02:45:47.667Z,1.20
2022-10-05T02:48:19.389Z,1.20
2022-10-05T02:50:52.552Z,1.17
2022-10-05T02:53:24.737Z,1.20
2022-10-05T02:55:57.672Z,1.00
2022-10-05T02:58:26.325Z,1.13
2022-10-05T03:00:58.169Z,1.25
2022-10-05T03:03:29.318Z,1.20
2022-10-05T03:06:02.107Z,1.50
2022-10-05T03:08:33.840Z,1.13
2022-10-05T03:11:05.745Z,1.10
2022-10-05T03:13:35.566Z,1.15
2022-10-05T03:16:13.877Z,1.20
2022-10-05T03:18:48.242Z,1.30
2022-10-05T03:21:29.837Z,1.05
2022-10-05T03:24:06.642Z,1.30
2022-10-05T03:26:38.122Z,0.93
2022-10-05T03:29:09.715Z,1.00
2022-10-05T03:31:40.450Z,1.20
2022-10-05T03:34:10.196Z,1.20
2022-10-05T03:36:40.085Z,1.10
2022-10-05T03:39:10.501Z,1.30
2022-10-05T03:41:41.766Z,1.17
2022-10-05T03:44:16.523Z,1.02
2022-10-05T03:46:57.431Z,1.05
2022-10-05T03:49:29.365Z,1.20
2022-10-05T03:52:00.123Z,1.23
2022-10-05T03:54:29.995Z,1.17
2022-10-05T03:56:58.521Z,1.20
2022-10-05T03:59:32.360Z,1.27
2022-10-05T04:02:02.352Z,1.20
2022-10-05T04:04:32.477Z,1.02
2022-10-05T04:07:00.032Z,1.20
2022-10-05T04:09:29.085Z,1.13
2022-10-05T04:12:04.217Z,1.00
2022-10-05T04:14:33.831Z,1.00
2022-10-05T04:17:04.152Z,1.27
2022-10-05T04:19:33.572Z,1.23
2022-10-05T04:22:05.761Z,1.30
2022-10-05T04:24:35.425Z,1.20
2022-10-05T04:27:05.617Z,1.30
2022-10-05T04:29:34.730Z,1.17
2022-10-05T04:32:10.168Z,1.15
2022-10-05T04:34:47.227Z,1.40
2022-10-05T04:37:18.471Z,1.33
2022-10-05T04:39:47.551Z,1.52
2022-10-05T04:42:18.142Z,1.30
2022-10-05T04:44:58.423Z,1.20
2022-10-05T04:47:36.788Z,1.45
2022-10-05T04:50:19.092Z,1.20
2022-10-05T04:52:51.888Z,1.40
2022-10-05T04:55:23.292Z,1.00
2022-10-05T04:57:51.598Z,0.88
2022-10-05T05:00:23.744Z,1.25
2022-10-05T05:03:02.636Z,1.17
2022-10-05T05:05:35.675Z,0.80
2022-10-05T05:08:10.280Z,1.10
2022-10-05T05:10:46.581Z,1.30
2022-10-05T05:13:25.919Z,1.20
2022-10-05T05:15:54.222Z,1.20
2022-10-05T05:18:35.701Z,1.10
2022-10-05T05:21:05.908Z,1.00
2022-10-05T05:23:38.615Z,1.20
2022-10-05T05:26:08.792Z,1.10
2022-10-05T05:28:40.129Z,1.10
2022-10-05T05:31:11.781Z,1.25
2022-10-05T05:33:45.294Z,1.00
2022-10-05T05:36:23.610Z,1.02
2022-10-05T05:38:55.741Z,1.10
2022-10-05T05:41:28.015Z,0.95
2022-10-05T05:44:06.046Z,1.00
2022-10-05T05:47:01.791Z,1.10
2022-10-05T05:49:31.261Z,0.95
2022-10-05T05:52:00.665Z,1.08
2022-10-05T05:54:30.677Z,1.20
2022-10-05T05:57:01.246Z,1.00
2022-10-05T05:59:30.577Z,1.00
2022-10-05T06:02:00.558Z,0.82
2022-10-05T06:04:31.937Z,1.13
2022-10-05T06:06:59.578Z,1.02
2022-10-05T06:09:27.868Z,1.00
2022-10-05T06:11:56.641Z,1.42
2022-10-05T06:14:26.136Z,1.15
2022-10-05T06:16:55.344Z,1.00
2022-10-05T06:19:23.733Z,1.08
2022-10-05T06:21:55.533Z,1.10
2022-10-05T06:24:24.597Z,1.00
2022-10-05T06:27:09.833Z,1.10
2022-10-05T06:29:43.293Z,1.10
2022-10-05T06:32:14.849Z,1.10
2022-10-05T06:34:53.164Z,1.00
2022-10-05T06:37:26.681Z,1.10
2022-10-05T06:40:02.871Z,1.20
2022-10-05T06:42:41.240Z,1.00
2022-10-05T06:45:12.969Z,1.10
2022-10-05T06:47:45.236Z,1.42
2022-10-05T06:50:16.233Z,1.08
2022-10-05T06:52:53.261Z,1.17
2022-10-05T06:55:24.012Z,0.88
2022-10-05T06:57:58.295Z,1.20
2022-10-05T07:00:26.653Z,1.00
2022-10-05T07:02:57.215Z,1.00
2022-10-05T07:05:53.867Z,1.05
2022-10-05T07:08:26.808Z,1.00
2022-10-05T07:11:03.916Z,0.80
2022-10-05T07:13:44.026Z,1.13
2022-10-05T07:16:13.650Z,1.00
2022-10-05T07:18:50.030Z,1.10
2022-10-05T07:21:21.400Z,1.10
2022-10-05T07:24:00.460Z,1.00
2022-10-05T07:26:32.470Z,1.00
2022-10-05T07:29:20.455Z,0.90
2022-10-05T07:31:50.850Z,1.00
2022-10-05T07:34:22.833Z,1.20
2022-10-05T07:37:18.084Z,1.00
2022-10-05T07:40:00.232Z,0.93
2022-10-05T07:42:42.441Z,1.15
2022-10-05T07:45:18.267Z,0.93
2022-10-05T07:47:48.453Z,1.10
2022-10-05T07:50:19.823Z,0.95
2022-10-05T07:52:49.405Z,1.05
2022-10-05T07:55:19.864Z,0.95
2022-10-05T07:57:50.884Z,0.90
2022-10-05T08:00:20.101Z,0.77
2022-10-05T08:02:49.611Z,1.00
2022-10-05T08:05:20.825Z,1.02
2022-10-05T08:07:48.953Z,1.08
2022-10-05T08:10:23.788Z,0.98
2022-10-05T08:13:03.753Z,0.95
2022-10-05T08:15:32.953Z,1.00
2022-10-05T08:18:01.549Z,1.08
2022-10-05T08:20:33.934Z,1.00
2022-10-05T08:23:03.425Z,1.00
2022-10-05T08:25:38.669Z,1.00
2022-10-05T08:28:09.427Z,0.90
2022-10-05T08:30:53.886Z,0.95
2022-10-05T08:33:21.493Z,0.90
2022-10-05T08:35:51.359Z,0.90
2022-10-05T08:38:20.194Z,0.85
2022-10-05T08:41:18.622Z,1.02
2022-10-05T08:44:03.283Z,1.15
2022-10-05T08:46:38.323Z,0.98
2022-10-05T08:49:14.009Z,0.85
2022-10-05T08:52:10.192Z,1.10
2022-10-05T08:54:44.583Z,0.98
2022-10-05T08:57:46.504Z,0.90
2022-10-05T09:00:15.117Z,0.88
2022-10-05T09:03:04.546Z,1.00
2022-10-05T09:06:21.491Z,1.00
2022-10-05T09:09:20.085Z,0.77
2022-10-05T09:11:55.907Z,0.93
2022-10-05T09:14:34.586Z,0.93
2022-10-05T09:17:14.181Z,0.90
2022-10-05T09:20:09.735Z,1.08
2022-10-05T09:22:40.271Z,0.85
2022-10-05T09:25:17.090Z,1.20
2022-10-05T09:27:45.633Z,0.98
2022-10-05T09:30:21.510Z,1.00
2022-10-05T09:33:09.593Z,1.10
2022-10-05T09:36:25.784Z,0.80
2022-10-05T09:39:27.081Z,0.80
2022-10-05T09:42:04.160Z,0.90
2022-10-05T09:44:51.258Z,0.90
2022-10-05T09:47:52.340Z,1.00
2022-10-05T09:50:50.813Z,1.00
2022-10-05T09:53:53.413Z,0.98
2022-10-05T09:59:27.244Z,1.83
2022-10-05T10:02:05.471Z,123.20
2022-10-05T10:04:52.802Z,128.63
2022-10-05T10:07:33.158Z,129.32
2022-10-05T10:10:34.205Z,107.50
2022-10-05T10:13:18.216Z,105.15
2022-10-05T10:15:57.619Z,104.55
2022-10-05T10:18:45.911Z,106.68
2022-10-05T10:21:37.948Z,103.57
2022-10-05T10:24:14.025Z,98.68
2022-10-05T10:26:54.439Z,98.03
2022-10-05T10:29:50.369Z,97.70
2022-10-05T10:32:37.350Z,91.30
2022-10-05T10:35:12.892Z,93.22
2022-10-05T10:38:28.563Z,90.65
2022-10-05T10:41:22.418Z,89.60
2022-10-05T10:44:07.025Z,91.22
2022-10-05T10:46:39.215Z,87.53
2022-10-05T10:49:17.006Z,91.95
2022-10-05T10:51:56.627Z,89.40
2022-10-05T10:54:35.104Z,89.00
2022-10-05T10:57:08.623Z,88.30
2022-10-05T11:00:15.451Z,86.03
2022-10-05T11:03:11.419Z,84.72
2022-10-05T11:05:54.267Z,84.13
2022-10-05T11:09:09.611Z,82.32
2022-10-05T11:12:15.492Z,84.80
2022-10-05T11:15:11.257Z,80.05
2022-10-05T11:17:59.129Z,78.75
2022-10-05T11:20:37.833Z,82.13
2022-10-05T11:23:17.725Z,80.82
2022-10-05T11:25:51.817Z,78.82
2022-10-05T11:28:36.104Z,80.18
2022-10-05T11:31:24.744Z,77.35
2022-10-05T11:34:12.496Z,75.88
2022-10-05T11:37:10.887Z,73.70
2022-10-05T11:39:44.091Z,73.45
2022-10-05T11:42:28.901Z,75.45
2022-10-05T11:45:22.668Z,74.47
2022-10-05T11:48:10.870Z,73.20
2022-10-05T11:50:40.689Z,72.70
2022-10-05T11:53:12.097Z,70.00
2022-10-05T11:55:41.103Z,70.85
2022-10-05T11:58:13.877Z,73.78
2022-10-05T12:00:43.080Z,70.15
2022-10-05T12:03:24.006Z,66.90
2022-10-05T12:06:02.233Z,69.53
2022-10-05T12:08:35.062Z,67.30
2022-10-05T12:11:12.005Z,69.00
2022-10-05T12:13:43.184Z,68.78
2022-10-05T12:16:13.822Z,66.47
2022-10-05T12:18:47.822Z,67.47
2022-10-05T12:21:19.707Z,65.20
2022-10-05T12:23:48.606Z,65.22
2022-10-05T12:26:17.349Z,65.85
2022-10-05T12:28:47.306Z,64.60
2022-10-05T12:31:21.553Z,64.47
2022-10-05T12:33:54.389Z,63.97
2022-10-05T12:36:26.354Z,65.18
2022-10-05T12:38:59.014Z,65.25
2022-10-05T12:41:28.525Z,62.10
2022-10-05T12:44:03.406Z,62.13
2022-10-05T12:46:35.079Z,61.45
2022-10-05T12:49:24.951Z,64.28
2022-10-05T12:51:56.173Z,61.20
2022-10-05T12:54:25.701Z,62.13
2022-10-05T12:56:55.697Z,59.83
2022-10-05T12:59:35.944Z,63.47
2022-10-05T13:02:06.135Z,60.40
2022-10-05T13:04:40.821Z,60.47
2022-10-05T13:07:34.434Z,58.33
2022-10-05T13:10:05.732Z,59.08
2022-10-05T13:12:42.312Z,56.85
2022-10-05T13:15:15.421Z,58.15
2022-10-05T13:17:45.423Z,58.88
2022-10-05T13:20:17.353Z,57.45
2022-10-05T13:22:44.945Z,57.72
2022-10-05T13:25:21.834Z,57.72
2022-10-05T13:27:58.430Z,56.70
2022-10-05T13:30:26.072Z,48.33
2022-10-05T13:32:57.055Z,50.03
2022-10-05T13:35:37.048Z,49.45
2022-10-05T13:38:08.923Z,50.70
2022-10-05T13:40:39.115Z,50.53
2022-10-05T13:43:08.444Z,50.10
2022-10-05T13:45:40.276Z,48.38
2022-10-05T13:48:14.928Z,50.13
2022-10-05T13:50:45.986Z,50.35
2022-10-05T13:53:17.950Z,49.38
2022-10-05T13:55:46.944Z,49.83
2022-10-05T13:58:20.164Z,47.15
2022-10-05T14:00:49.444Z,46.17
2022-10-05T14:03:27.883Z,48.55
2022-10-05T14:05:59.111Z,47.28
2022-10-05T14:08:28.250Z,44.88
2022-10-05T14:10:56.824Z,47.67
2022-10-05T14:13:28.699Z,47.45
2022-10-05T14:15:59.297Z,46.75
2022-10-05T14:18:27.698Z,46.92
2022-10-05T14:21:17.135Z,47.22
2022-10-05T14:23:44.950Z,42.13
2022-10-05T14:26:18.745Z,44.78
2022-10-05T14:28:57.923Z,45.28
2022-10-05T14:31:29.059Z,45.65
2022-10-05T14:33:56.633Z,44.60
2022-10-05T14:36:36.080Z,45.78
2022-10-05T14:39:05.137Z,42.83
2022-10-05T14:41:35.628Z,42.20
2022-10-05T14:44:05.199Z,43.90
2022-10-05T14:46:33.562Z,42.33
2022-10-05T14:49:13.960Z,41.83
2022-10-05T14:51:43.189Z,42.15
2022-10-05T14:54:23.417Z,40.78
2022-10-05T14:56:51.301Z,41.55
2022-10-05T14:59:27.810Z,40.97
2022-10-05T15:01:57.490Z,42.22
2022-10-05T15:04:31.882Z,39.10
2022-10-05T15:07:06.961Z,40.20
2022-10-05T15:09:47.319Z,38.72
2022-10-05T15:12:15.220Z,41.92
2022-10-05T15:14:44.429Z,41.92
2022-10-05T15:17:15.536Z,42.13
2022-10-05T15:19:46.668Z,39.10
2022-10-05T15:22:26.968Z,39.97
2022-10-05T15:25:01.572Z,40.25
2022-10-05T15:27:32.759Z,38.22
2022-10-05T15:30:04.616Z,38.08
2022-10-05T15:32:41.553Z,39.50
2022-10-05T15:35:48.042Z,39.75
2022-10-05T15:38:23.772Z,40.15
2022-10-05T15:40:59.501Z,37.63
2022-10-05T15:43:27.372Z,38.15
2022-10-05T15:45:58.378Z,38.20
2022-10-05T15:48:29.078Z,37.83
2022-10-05T15:51:01.339Z,37.60
2022-10-05T15:53:34.121Z,37.88
2022-10-05T15:56:03.650Z,36.40
2022-10-05T15:58:53.816Z,38.30
2022-10-05T16:01:22.462Z,37.75
2022-10-05T16:03:51.459Z,38.72
2022-10-05T16:06:43.268Z,36.40
2022-10-05T16:09:18.850Z,36.90
2022-10-05T16:11:59.632Z,36.10
2022-10-05T16:14:34.442Z,34.78
2022-10-05T16:17:13.571Z,27.98
2022-10-05T16:19:44.158Z,33.13
2022-10-05T16:22:16.737Z,29.75
2022-10-05T16:24:52.078Z,29.42
2022-10-05T16:27:22.030Z,27.42
2022-10-05T16:29:53.160Z,26.98
2022-10-05T16:32:22.604Z,26.90
2022-10-05T16:34:57.535Z,26.63
2022-10-05T16:37:29.367Z,26.15
2022-10-05T16:40:00.006Z,24.30
2022-10-05T16:42:35.716Z,24.42
2022-10-05T16:45:10.888Z,23.00
2022-10-05T16:47:43.946Z,21.90
2022-10-05T16:50:18.808Z,22.27
2022-10-05T16:52:47.755Z,22.45
2022-10-05T16:55:20.969Z,21.58
2022-10-05T16:57:51.521Z,21.13
2022-10-05T17:00:21.347Z,21.55
2022-10-05T17:03:05.124Z,20.20
2022-10-05T17:05:44.088Z,20.52
2022-10-05T17:08:21.475Z,20.67
2022-10-05T17:10:59.045Z,19.63
2022-10-05T17:13:43.391Z,19.55
2022-10-05T17:16:13.216Z,18.75
2022-10-05T17:18:55.076Z,17.90
2022-10-05T17:21:23.844Z,17.25
2022-10-05T17:23:55.022Z,18.23
2022-10-05T17:26:42.410Z,18.77
2022-10-05T17:29:10.720Z,18.05
2022-10-05T17:32:02.931Z,17.77
2022-10-05T17:34:31.068Z,19.13
2022-10-05T17:36:59.737Z,17.25
2022-10-05T17:39:46.428Z,19.60
2022-10-05T17:42:49.160Z,18.60
2022-10-05T17:45:52.465Z,17.48
2022-10-05T17:49:01.246Z,17.25
2022-10-05T17:52:15.567Z,17.05
2022-10-05T17:55:14.344Z,16.00
2022-10-05T17:57:41.915Z,17.38
2022-10-05T18:00:34.713Z,16.73
2022-10-05T18:03:02.299Z,16.80
2022-10-05T18:05:30.090Z,16.02
2022-10-05T18:08:21.203Z,16.42
2022-10-05T18:11:07.521Z,15.88
2022-10-05T18:13:35.708Z,15.55
2022-10-05T18:16:09.667Z,15.45
2022-10-05T18:18:55.792Z,15.55
2022-10-05T18:21:35.529Z,15.85
2022-10-05T18:24:29.556Z,15.52
2022-10-05T18:27:03.300Z,15.13
2022-10-05T18:30:08.900Z,15.38
2022-10-05T18:32:45.355Z,16.08
2022-10-05T18:35:14.555Z,13.82
2022-10-05T18:37:47.301Z,14.40
2022-10-05T18:40:23.890Z,14.85
2022-10-05T18:42:53.700Z,13.52
2022-10-05T18:45:23.611Z,13.48
2022-10-05T18:47:58.678Z,14.70
2022-10-05T18:50:28.049Z,15.02
2022-10-05T18:53:08.425Z,13.75
2022-10-05T18:55:37.340Z,14.07
2022-10-05T18:58:10.963Z,14.38
2022-10-05T19:00:46.501Z,12.75
2022-10-05T19:03:17.504Z,13.75
2022-10-05T19:05:49.009Z,13.50
2022-10-05T19:08:25.532Z,12.95
2022-10-05T19:10:56.032Z,14.25
2022-10-05T19:13:30.962Z,13.55
2022-10-05T19:16:04.800Z,14.30
2022-10-05T19:18:46.519Z,12.65
2022-10-05T19:21:21.650Z,13.38
2022-10-05T19:24:13.946Z,13.68
2022-10-05T19:26:51.701Z,13.02
2022-10-05T19:29:27.020Z,12.73
2022-10-05T19:31:56.463Z,13.50
2022-10-05T19:34:33.712Z,12.80
2022-10-05T19:37:04.077Z,13.55
2022-10-05T19:39:35.955Z,13.20
2022-10-05T19:42:12.575Z,12.40
2022-10-05T19:44:47.981Z,13.10
2022-10-05T19:47:18.583Z,12.88
2022-10-05T19:49:57.499Z,13.52
2022-10-05T19:52:28.293Z,12.00
2022-10-05T19:55:04.602Z,12.15
2022-10-05T19:57:32.574Z,12.65
2022-10-05T20:00:00.405Z,12.52
2022-10-05T20:02:28.230Z,12.23
2022-10-05T20:04:57.413Z,12.60
2022-10-05T20:07:24.973Z,11.32
2022-10-05T20:09:54.633Z,12.75
2022-10-05T20:12:22.886Z,12.30
2022-10-05T20:15:23.885Z,12.00
2022-10-05T20:18:23.574Z,11.55
2022-10-05T20:20:52.482Z,12.30
2022-10-05T20:23:23.954Z,12.20
2022-10-05T20:26:05.508Z,12.77
2022-10-05T20:28:33.379Z,11.65
2022-10-05T20:31:01.331Z,11.68
2022-10-05T20:33:28.976Z,11.48
2022-10-05T20:35:57.966Z,11.27
2022-10-05T20:38:25.958Z,11.98
2022-10-05T20:40:53.779Z,12.07
2022-10-05T20:43:21.292Z,11.13
2022-10-05T20:45:48.829Z,12.18
2022-10-05T20:48:17.400Z,12.75
2022-10-05T20:50:44.932Z,12.02
2022-10-05T20:53:14.097Z,11.73
2022-10-05T20:55:42.986Z,12.55
2022-10-05T20:58:11.060Z,11.50
2022-10-05T21:00:56.601Z,12.40
2022-10-05T21:03:24.293Z,11.20
2022-10-05T21:05:51.844Z,10.88
2022-10-05T21:08:20.708Z,11.48
2022-10-05T21:10:49.296Z,12.18
2022-10-05T21:13:17.552Z,11.02
2022-10-05T21:15:45.087Z,11.85
2022-10-05T21:18:12.636Z,11.32
2022-10-05T21:20:40.145Z,12.75
2022-10-05T21:23:07.672Z,11.55
2022-10-05T21:25:36.537Z,12.27
2022-10-05T21:28:04.918Z,11.18
2022-10-05T21:30:32.457Z,10.55
2022-10-05T21:32:59.996Z,11.15
2022-10-05T21:35:27.573Z,11.30
2022-10-05T21:37:55.120Z,11.35
2022-10-05T21:40:23.837Z,11.63
2022-10-05T21:42:52.709Z,10.75
2022-10-05T21:45:20.249Z,11.27
2022-10-05T21:47:47.807Z,11.27
2022-10-05T21:50:15.521Z,10.95
2022-10-05T21:52:43.052Z,9.55
2022-10-05T21:55:10.781Z,11.35
2022-10-05T21:57:38.315Z,11.02
2022-10-05T22:00:08.841Z,10.52
2022-10-05T22:02:36.427Z,10.95
2022-10-05T22:05:04.180Z,10.35
2022-10-05T22:07:31.941Z,10.25
2022-10-05T22:09:59.493Z,10.80
2022-10-05T22:12:28.073Z,10.05
2022-10-05T22:14:55.568Z,10.48
2022-10-05T22:17:27.099Z,10.20
2022-10-05T22:19:54.889Z,11.38
2022-10-05T22:22:22.405Z,10.70
2022-10-05T22:24:49.948Z,10.05
2022-10-05T22:27:17.513Z,10.70
2022-10-05T22:29:45.068Z,11.02
2022-10-05T22:32:12.881Z,10.52
2022-10-05T22:34:41.771Z,10.43
2022-10-05T22:37:12.873Z,9.75
2022-10-05T22:39:40.539Z,9.82
2022-10-05T22:42:08.360Z,10.32
2022-10-05T22:44:36.222Z,10.65
2022-10-05T22:47:04.005Z,10.85
2022-10-05T22:49:31.542Z,10.80
2022-10-05T22:52:00.423Z,10.55
2022-10-05T22:54:30.085Z,10.20
2022-10-05T22:56:59.294Z,11.05
2022-10-05T22:59:26.819Z,9.73
2022-10-05T23:01:54.556Z,10.35
2022-10-05T23:04:22.250Z,10.82
2022-10-05T23:06:49.763Z,10.30
2022-10-05T23:09:18.757Z,9.65
2022-10-05T23:11:51.789Z,9.27
2022-10-05T23:14:19.512Z,10.48
2022-10-05T23:16:47.450Z,9.90
2022-10-05T23:19:15.032Z,9.68
2022-10-05T23:21:42.613Z,9.95
2022-10-05T23:24:10.163Z,10.10
2022-10-05T23:26:39.182Z,10.07
2022-10-05T23:29:06.768Z,9.52
2022-10-05T23:31:36.438Z,9.88
2022-10-05T23:34:04.023Z,9.50
2022-10-05T23:36:32.373Z,9.20
2022-10-05T23:38:59.917Z,9.40
2022-10-05T23:41:27.470Z,10.50
2022-10-05T23:43:56.361Z,9.20
2022-10-05T23:46:24.038Z,9.18
2022-10-05T23:48:53.204Z,9.98
2022-10-05T23:51:20.765Z,9.90
2022-10-05T23:53:48.359Z,9.43
2022-10-05T23:56:15.932Z,9.73
2022-10-05T23:58:43.532Z,8.93
